createdAt,value
2022-08-21T00:01:51.568Z,41.65
2022-08-21T00:04:22.164Z,41.03
2022-08-21T00:06:53.923Z,41.93
2022-08-21T00:09:21.098Z,40.92
2022-08-21T00:11:49.016Z,40.25
2022-08-21T00:14:16.962Z,40.22
2022-08-21T00:16:43.995Z,40.30
2022-08-21T00:19:11.071Z,41.65
2022-08-21T00:21:38.200Z,41.30
2022-08-21T00:24:05.995Z,39.50
2022-08-21T00:26:34.754Z,40.15
2022-08-21T00:29:05.128Z,38.67
2022-08-21T00:31:32.173Z,38.33
2022-08-21T00:34:00.844Z,39.40
2022-08-21T00:36:29.178Z,39.95
2022-08-21T00:38:56.635Z,40.92
2022-08-21T00:41:37.387Z,39.83
2022-08-21T00:46:33.352Z,39.28
2022-08-21T00:49:00.234Z,39.00
2022-08-21T00:51:38.298Z,40.22
2022-08-21T00:54:18.292Z,39.45
2022-08-21T00:56:53.847Z,38.10
2022-08-21T00:59:22.801Z,38.63
2022-08-21T01:01:50.532Z,40.47
2022-08-21T01:04:18.059Z,37.40
2022-08-21T01:06:45.400Z,38.33
2022-08-21T01:09:14.304Z,37.78
2022-08-21T01:11:44.062Z,39.50
2022-08-21T01:14:13.981Z,38.60
2022-08-21T01:16:45.674Z,38.67
2022-08-21T01:19:13.662Z,37.75
2022-08-21T01:21:40.546Z,38.63
2022-08-21T01:24:07.927Z,37.97
2022-08-21T01:26:36.374Z,36.58
2022-08-21T01:29:41.373Z,35.72
2022-08-21T01:32:11.579Z,37.72
2022-08-21T01:34:41.350Z,35.40
2022-08-21T01:37:08.848Z,34.60
2022-08-21T01:39:36.889Z,35.78
2022-08-21T01:42:05.046Z,34.72
2022-08-21T01:44:32.741Z,34.97
2022-08-21T01:47:02.594Z,36.90
2022-08-21T01:49:29.489Z,33.75
2022-08-21T01:51:56.544Z,35.20
2022-08-21T01:54:23.688Z,32.75
2022-08-21T01:56:53.457Z,30.60
2022-08-21T01:59:21.624Z,30.98
2022-08-21T02:01:48.553Z,31.30
2022-08-21T02:04:15.424Z,30.70
2022-08-21T02:06:42.636Z,31.13
2022-08-21T02:09:11.563Z,31.67
2022-08-21T02:11:41.628Z,30.17
2022-08-21T02:14:14.021Z,30.10
2022-08-21T02:16:43.725Z,31.27
2022-08-21T02:19:12.688Z,30.83
2022-08-21T02:21:39.838Z,29.92
2022-08-21T02:24:07.405Z,28.67
2022-08-21T02:26:34.501Z,28.95
2022-08-21T02:29:01.746Z,28.58
2022-08-21T02:31:28.747Z,28.73
2022-08-21T02:33:55.924Z,30.08
2022-08-21T02:36:22.838Z,28.83
2022-08-21T02:38:50.504Z,27.30
2022-08-21T02:41:20.197Z,28.70
2022-08-21T02:43:47.412Z,28.75
2022-08-21T02:46:17.076Z,29.00
2022-08-21T02:48:44.399Z,27.58
2022-08-21T02:51:15.772Z,28.13
2022-08-21T02:53:43.504Z,27.50
2022-08-21T02:56:12.934Z,27.13
2022-08-21T02:58:42.900Z,26.80
2022-08-21T03:01:10.586Z,28.33
2022-08-21T03:03:40.236Z,27.10
2022-08-21T03:06:09.254Z,26.42
2022-08-21T03:08:37.177Z,27.75
2022-08-21T03:11:04.374Z,26.70
2022-08-21T03:13:33.745Z,27.13
2022-08-21T03:16:00.908Z,26.35
2022-08-21T03:18:27.812Z,27.33
2022-08-21T03:20:54.774Z,26.88
2022-08-21T03:23:21.945Z,26.25
2022-08-21T03:25:49.504Z,27.13
2022-08-21T03:28:21.116Z,26.45
2022-08-21T03:30:50.693Z,25.40
2022-08-21T03:33:20.777Z,25.50
2022-08-21T03:36:01.678Z,25.75
2022-08-21T03:38:31.650Z,25.83
2022-08-21T03:40:59.130Z,27.02
2022-08-21T03:43:25.955Z,25.65
2022-08-21T03:45:52.817Z,25.90
2022-08-21T03:48:20.165Z,26.92
2022-08-21T03:50:48.293Z,26.83
2022-08-21T03:53:17.257Z,26.77
2022-08-21T03:55:47.525Z,24.80
2022-08-21T03:58:17.714Z,26.55
2022-08-21T04:00:49.939Z,26.92
2022-08-21T04:05:46.477Z,25.50
2022-08-21T04:08:15.560Z,25.15
2022-08-21T04:10:44.767Z,25.65
2022-08-21T04:13:12.168Z,26.92
2022-08-21T04:15:39.478Z,27.77
2022-08-21T04:18:06.709Z,27.85
2022-08-21T04:20:34.636Z,27.27
2022-08-21T04:23:02.588Z,28.08
2022-08-21T04:25:30.107Z,26.30
2022-08-21T04:27:57.248Z,27.02
2022-08-21T04:30:28.083Z,29.02
2022-08-21T04:32:58.407Z,26.80
2022-08-21T04:35:27.904Z,28.38
2022-08-21T04:37:55.344Z,27.98
2022-08-21T04:40:25.021Z,28.98
2022-08-21T04:42:55.300Z,29.45
2022-08-21T04:45:26.098Z,28.60
2022-08-21T04:47:54.961Z,29.67
2022-08-21T04:50:25.901Z,29.00
2022-08-21T04:52:53.888Z,29.48
2022-08-21T04:55:21.415Z,31.08
2022-08-21T04:57:49.497Z,30.98
2022-08-21T05:00:19.809Z,31.70
2022-08-21T05:02:49.198Z,34.00
2022-08-21T05:05:17.284Z,32.60
2022-08-21T05:07:45.889Z,32.80
2022-08-21T05:10:15.037Z,36.40
2022-08-21T05:12:43.883Z,35.45
2022-08-21T05:15:14.935Z,33.83
2022-08-21T05:17:42.892Z,35.27
2022-08-21T05:20:14.654Z,34.65
2022-08-21T05:22:41.689Z,34.88
2022-08-21T05:25:10.879Z,36.42
2022-08-21T05:27:39.692Z,36.22
2022-08-21T05:30:11.118Z,35.88
2022-08-21T05:32:38.348Z,36.90
2022-08-21T05:35:07.886Z,36.17
2022-08-21T05:37:35.438Z,35.70
2022-08-21T05:40:04.746Z,35.22
2022-08-21T05:42:54.696Z,34.92
2022-08-21T05:45:41.944Z,36.00
2022-08-21T05:48:12.354Z,34.13
2022-08-21T05:50:39.647Z,33.55
2022-08-21T05:53:08.072Z,34.75
2022-08-21T05:55:41.515Z,33.50
2022-08-21T05:58:12.781Z,33.33
2022-08-21T06:00:39.905Z,34.40
2022-08-21T06:03:17.948Z,33.83
2022-08-21T06:05:45.022Z,33.58
2022-08-21T06:08:12.636Z,33.63
2022-08-21T06:10:39.920Z,32.88
2022-08-21T06:13:06.860Z,33.17
2022-08-21T06:15:33.945Z,32.50
2022-08-21T06:18:00.861Z,33.10
2022-08-21T06:20:28.375Z,32.78
2022-08-21T06:22:55.428Z,31.98
2022-08-21T06:25:22.653Z,32.15
2022-08-21T06:27:50.802Z,32.80
2022-08-21T06:30:18.458Z,32.45
2022-08-21T06:32:45.401Z,30.88
2022-08-21T06:35:12.551Z,30.15
2022-08-21T06:37:39.440Z,31.08
2022-08-21T06:40:12.586Z,33.53
2022-08-21T06:42:41.453Z,31.65
2022-08-21T06:45:11.027Z,30.65
2022-08-21T06:47:38.017Z,30.83
2022-08-21T06:50:08.645Z,32.20
2022-08-21T06:52:37.162Z,31.20
2022-08-21T06:55:07.113Z,30.85
2022-08-21T06:57:34.522Z,33.50
2022-08-21T07:00:01.486Z,30.95
2022-08-21T07:02:30.672Z,29.25
2022-08-21T07:04:59.170Z,27.83
2022-08-21T07:07:26.199Z,29.17
2022-08-21T07:09:53.053Z,29.80
2022-08-21T07:12:20.880Z,29.92
2022-08-21T07:14:47.941Z,30.75
2022-08-21T07:17:14.791Z,31.02
2022-08-21T07:19:41.659Z,29.30
2022-08-21T07:22:08.645Z,28.73
2022-08-21T07:24:35.482Z,27.65
2022-08-21T07:27:02.427Z,27.60
2022-08-21T07:29:31.747Z,27.40
2022-08-21T07:31:58.673Z,27.45
2022-08-21T07:34:25.581Z,27.95
2022-08-21T07:36:53.185Z,28.33
2022-08-21T07:39:20.078Z,26.05
2022-08-21T07:41:46.947Z,28.08
2022-08-21T07:44:13.946Z,27.98
2022-08-21T07:46:41.177Z,27.65
2022-08-21T07:49:08.040Z,27.10
2022-08-21T07:51:35.200Z,26.60
2022-08-21T07:54:04.777Z,25.75
2022-08-21T07:56:33.051Z,25.55
2022-08-21T07:59:00.013Z,24.77
2022-08-21T08:01:26.993Z,25.60
2022-08-21T08:03:53.905Z,23.30
2022-08-21T08:06:20.821Z,23.98
2022-08-21T08:08:48.370Z,23.80
2022-08-21T08:11:16.357Z,22.98
2022-08-21T08:13:49.665Z,23.75
2022-08-21T08:16:17.253Z,22.48
2022-08-21T08:18:45.401Z,23.45
2022-08-21T08:21:13.927Z,23.52
2022-08-21T08:23:40.854Z,23.85
2022-08-21T08:26:07.703Z,24.08
2022-08-21T08:28:34.630Z,25.63
2022-08-21T08:31:01.977Z,26.48
2022-08-21T08:33:28.821Z,24.90
2022-08-21T08:36:01.356Z,23.35
2022-08-21T08:38:31.569Z,23.50
2022-08-21T08:41:16.887Z,22.45
2022-08-21T08:43:50.454Z,22.45
2022-08-21T08:46:25.501Z,22.65
2022-08-21T08:48:58.161Z,22.13
2022-08-21T08:51:46.533Z,22.48
2022-08-21T08:54:20.507Z,21.60
2022-08-21T08:56:48.657Z,19.50
2022-08-21T08:59:18.035Z,19.48
2022-08-21T09:01:45.056Z,18.33
2022-08-21T09:04:13.625Z,18.10
2022-08-21T09:06:57.028Z,17.88
2022-08-21T09:09:23.928Z,18.70
2022-08-21T09:12:02.669Z,19.08
2022-08-21T09:14:47.746Z,17.67
2022-08-21T09:17:23.231Z,18.65
2022-08-21T09:19:52.609Z,18.35
2022-08-21T09:22:50.784Z,17.48
2022-08-21T09:25:27.056Z,17.77
2022-08-21T09:27:54.552Z,17.00
2022-08-21T09:30:29.913Z,16.40
2022-08-21T09:32:57.770Z,16.23
2022-08-21T09:35:25.763Z,15.88
2022-08-21T09:37:59.234Z,14.50
2022-08-21T09:40:38.479Z,12.27
2022-08-21T09:43:19.738Z,11.80
2022-08-21T09:45:48.934Z,10.65
2022-08-21T09:48:27.122Z,11.70
2022-08-21T09:51:16.167Z,11.02
2022-08-21T09:54:13.665Z,10.65
2022-08-21T09:57:21.112Z,9.35
2022-08-21T09:59:48.071Z,8.25
2022-08-21T10:02:27.248Z,8.02
2022-08-21T10:04:58.074Z,8.00
2022-08-21T10:07:28.839Z,8.97
2022-08-21T10:10:08.483Z,9.23
2022-08-21T10:12:55.638Z,9.30
2022-08-21T10:15:41.220Z,9.95
2022-08-21T10:18:10.780Z,10.05
2022-08-21T10:20:45.844Z,9.93
2022-08-21T10:23:30.622Z,9.80
2022-08-21T10:26:14.277Z,9.88
2022-08-21T10:28:47.572Z,10.27
2022-08-21T10:32:03.281Z,9.68
2022-08-21T10:34:44.366Z,9.93
2022-08-21T10:37:46.974Z,8.65
2022-08-21T10:40:27.374Z,9.05
2022-08-21T10:42:57.305Z,7.68
2022-08-21T10:45:49.459Z,7.13
2022-08-21T10:51:29.540Z,6.30
2022-08-21T10:54:25.298Z,5.47
2022-08-21T10:57:00.533Z,4.90
2022-08-21T11:00:02.833Z,4.85
2022-08-21T11:02:47.382Z,4.82
2022-08-21T11:05:38.285Z,5.22
2022-08-21T11:08:16.397Z,4.22
2022-08-21T11:10:59.168Z,4.22
2022-08-21T11:13:44.607Z,4.18
2022-08-21T11:16:31.505Z,4.10
2022-08-21T11:19:06.907Z,3.78
2022-08-21T11:21:45.765Z,4.28
2022-08-21T11:24:50.196Z,4.80
2022-08-21T11:27:41.376Z,4.80
2022-08-21T11:30:09.554Z,5.30
2022-08-21T11:33:22.655Z,5.18
2022-08-21T11:35:58.314Z,5.63
2022-08-21T11:38:50.930Z,6.22
2022-08-21T11:41:36.594Z,7.18
2022-08-21T11:44:24.545Z,6.97
2022-08-21T11:47:09.929Z,7.95
2022-08-21T11:50:04.169Z,7.80
2022-08-21T11:52:55.251Z,7.68
2022-08-21T11:55:32.760Z,8.30
2022-08-21T11:58:09.067Z,8.93
2022-08-21T12:00:42.650Z,9.55
2022-08-21T12:03:23.892Z,10.80
2022-08-21T12:05:57.898Z,10.93
2022-08-21T12:08:37.393Z,11.85
2022-08-21T12:11:30.726Z,11.98
2022-08-21T12:14:15.150Z,11.40
2022-08-21T12:16:44.843Z,11.27
2022-08-21T12:19:22.197Z,8.93
2022-08-21T12:22:11.738Z,7.95
2022-08-21T12:24:38.531Z,5.75
2022-08-21T12:27:31.265Z,3.65
2022-08-21T12:30:02.479Z,3.42
2022-08-21T12:32:42.796Z,3.30
2022-08-21T12:35:25.642Z,3.20
2022-08-21T12:38:10.526Z,3.38
2022-08-21T12:40:48.618Z,3.00
2022-08-21T12:43:21.266Z,3.00
2022-08-21T12:45:52.072Z,3.25
2022-08-21T12:48:26.375Z,2.72
2022-08-21T12:51:06.271Z,3.00
2022-08-21T12:53:49.895Z,3.10
2022-08-21T12:56:28.345Z,3.78
2022-08-21T12:59:02.895Z,3.10
2022-08-21T13:01:41.930Z,3.58
2022-08-21T13:04:16.811Z,3.40
2022-08-21T13:06:50.130Z,3.40
2022-08-21T13:09:20.935Z,3.75
2022-08-21T13:11:49.793Z,4.20
2022-08-21T13:14:40.803Z,4.55
2022-08-21T13:17:23.319Z,4.60
2022-08-21T13:20:00.971Z,4.53
2022-08-21T13:22:33.829Z,5.22
2022-08-21T13:25:07.148Z,5.00
2022-08-21T13:27:35.405Z,5.03
2022-08-21T13:30:14.113Z,4.90
2022-08-21T13:32:47.158Z,5.03
2022-08-21T13:35:23.949Z,4.88
2022-08-21T13:37:53.065Z,5.38
2022-08-21T13:40:25.714Z,4.68
2022-08-21T13:42:53.660Z,4.40
2022-08-21T13:45:33.686Z,5.15
2022-08-21T13:48:06.373Z,4.20
2022-08-21T13:50:38.245Z,5.20
2022-08-21T13:53:20.009Z,4.90
2022-08-21T13:58:13.754Z,4.30
2022-08-21T14:00:51.769Z,4.97
2022-08-21T14:03:46.515Z,4.38
2022-08-21T14:06:18.150Z,4.50
2022-08-21T14:08:59.942Z,5.28
2022-08-21T14:11:32.346Z,5.05
2022-08-21T14:14:02.597Z,5.10
2022-08-21T14:16:43.126Z,6.40
2022-08-21T14:19:31.794Z,7.45
2022-08-21T14:21:58.713Z,8.13
2022-08-21T14:24:31.973Z,8.18
2022-08-21T14:27:07.618Z,7.78
2022-08-21T14:29:41.364Z,7.82
2022-08-21T14:32:24.673Z,7.32
2022-08-21T14:34:52.735Z,7.05
2022-08-21T14:37:21.848Z,7.00
2022-08-21T14:39:48.701Z,6.78
2022-08-21T14:42:15.544Z,6.40
2022-08-21T14:44:42.347Z,6.20
2022-08-21T14:47:10.137Z,5.45
2022-08-21T14:49:37.141Z,6.43
2022-08-21T14:52:04.559Z,6.03
2022-08-21T14:54:33.269Z,5.97
2022-08-21T14:57:06.711Z,4.85
2022-08-21T14:59:34.261Z,4.78
2022-08-21T15:02:02.004Z,4.72
2022-08-21T15:04:28.969Z,5.15
2022-08-21T15:06:55.868Z,4.20
2022-08-21T15:09:23.513Z,4.43
2022-08-21T15:11:50.852Z,3.90
2022-08-21T15:14:27.507Z,3.50
2022-08-21T15:16:54.762Z,3.67
2022-08-21T15:19:21.687Z,4.13
2022-08-21T15:21:48.739Z,3.30
2022-08-21T15:24:16.031Z,3.08
2022-08-21T15:26:43.910Z,3.28
2022-08-21T15:29:11.170Z,3.30
2022-08-21T15:31:55.012Z,3.20
2022-08-21T15:34:23.323Z,2.80
2022-08-21T15:36:56.958Z,3.10
2022-08-21T15:39:30.204Z,2.75
2022-08-21T15:41:59.727Z,2.67
2022-08-21T15:44:30.321Z,2.50
2022-08-21T15:46:57.973Z,2.65
2022-08-21T15:49:25.034Z,2.70
2022-08-21T15:51:52.522Z,2.50
2022-08-21T15:54:19.344Z,2.60
2022-08-21T15:56:52.798Z,2.15
2022-08-21T15:59:23.114Z,2.30
2022-08-21T16:01:52.067Z,2.83
2022-08-21T16:04:27.958Z,2.63
2022-08-21T16:07:01.839Z,2.45
2022-08-21T16:09:30.875Z,2.90
2022-08-21T16:11:59.254Z,2.50
2022-08-21T16:14:26.101Z,2.75
2022-08-21T16:16:54.087Z,2.50
2022-08-21T16:19:21.925Z,2.92
2022-08-21T16:21:48.970Z,3.03
2022-08-21T16:24:15.833Z,2.72
2022-08-21T16:26:43.183Z,2.90
2022-08-21T16:29:10.601Z,3.42
2022-08-21T16:31:37.660Z,3.03
2022-08-21T16:34:04.686Z,3.28
2022-08-21T16:36:31.544Z,3.00
2022-08-21T16:39:00.948Z,3.10
2022-08-21T16:41:34.489Z,3.03
2022-08-21T16:44:01.751Z,3.63
2022-08-21T16:46:31.050Z,3.22
2022-08-21T16:48:57.854Z,3.50
2022-08-21T16:51:24.820Z,3.53
2022-08-21T16:53:52.051Z,3.25
2022-08-21T16:56:19.042Z,2.90
2022-08-21T16:58:49.496Z,3.30
2022-08-21T17:01:19.841Z,3.03
2022-08-21T17:03:51.237Z,3.10
2022-08-21T17:06:19.182Z,3.10
2022-08-21T17:08:46.833Z,3.30
2022-08-21T17:11:37.401Z,3.47
2022-08-21T17:14:15.050Z,3.58
2022-08-21T17:16:45.505Z,3.35
2022-08-21T17:19:13.424Z,3.22
2022-08-21T17:21:40.389Z,3.40
2022-08-21T17:24:07.590Z,3.85
2022-08-21T17:26:34.990Z,4.07
2022-08-21T17:29:01.949Z,3.97
2022-08-21T17:31:30.430Z,3.63
2022-08-21T17:33:57.746Z,4.13
2022-08-21T17:36:27.431Z,4.40
2022-08-21T17:38:54.357Z,4.60
2022-08-21T17:41:22.438Z,4.82
2022-08-21T17:43:50.228Z,4.78
2022-08-21T17:46:26.934Z,5.05
2022-08-21T17:48:54.284Z,4.70
2022-08-21T17:51:22.049Z,4.82
2022-08-21T17:53:48.927Z,4.50
2022-08-21T17:56:17.973Z,4.25
2022-08-21T17:58:51.819Z,3.85
2022-08-21T18:01:19.668Z,4.20
2022-08-21T18:03:47.445Z,3.80
2022-08-21T18:06:17.667Z,3.78
2022-08-21T18:08:45.912Z,3.92
2022-08-21T18:11:16.001Z,4.05
2022-08-21T18:13:53.098Z,4.18
2022-08-21T18:16:21.019Z,4.43
2022-08-21T18:18:49.280Z,4.63
2022-08-21T18:21:16.390Z,4.18
2022-08-21T18:23:44.939Z,4.53
2022-08-21T18:26:15.765Z,4.80
2022-08-21T18:28:44.295Z,5.45
2022-08-21T18:31:12.164Z,5.55
2022-08-21T18:33:52.851Z,4.57
2022-08-21T18:36:25.326Z,5.40
2022-08-21T18:38:52.541Z,5.07
2022-08-21T18:41:19.450Z,5.22
2022-08-21T18:43:46.490Z,5.13
2022-08-21T18:46:13.573Z,5.45
2022-08-21T18:48:42.508Z,5.30
2022-08-21T18:51:11.365Z,5.30
2022-08-21T18:53:38.789Z,5.40
2022-08-21T18:56:08.392Z,5.70
2022-08-21T18:58:44.421Z,5.35
2022-08-21T19:01:12.178Z,5.60
2022-08-21T19:03:39.899Z,6.18
2022-08-21T19:06:09.793Z,5.22
2022-08-21T19:08:38.997Z,5.45
2022-08-21T19:11:06.642Z,5.80
2022-08-21T19:13:34.633Z,5.15
2022-08-21T19:16:05.233Z,4.85
2022-08-21T19:18:40.462Z,5.60
2022-08-21T19:21:07.639Z,5.50
2022-08-21T19:23:35.118Z,6.70
2022-08-21T19:26:23.707Z,4.95
2022-08-21T19:28:54.682Z,4.90
2022-08-21T19:31:29.897Z,5.35
2022-08-21T19:34:06.325Z,5.65
2022-08-21T19:36:35.192Z,5.15
2022-08-21T19:39:02.077Z,5.78
2022-08-21T19:41:39.116Z,5.03
2022-08-21T19:46:37.468Z,4.75
2022-08-21T19:49:08.551Z,4.70
2022-08-21T19:51:37.469Z,5.95
2022-08-21T19:54:05.862Z,4.45
2022-08-21T19:56:38.401Z,4.38
2022-08-21T19:59:09.295Z,4.38
2022-08-21T20:01:36.586Z,4.28
2022-08-21T20:04:10.995Z,4.28
2022-08-21T20:06:47.438Z,4.30
2022-08-21T20:09:16.346Z,4.30
2022-08-21T20:11:47.924Z,4.22
2022-08-21T20:14:19.294Z,4.85
2022-08-21T20:16:47.502Z,4.43
2022-08-21T20:19:14.891Z,4.40
2022-08-21T20:21:43.629Z,3.88
2022-08-21T20:24:28.746Z,3.90
2022-08-21T20:26:56.213Z,4.00
2022-08-21T20:29:28.795Z,4.03
2022-08-21T20:32:02.975Z,4.00
2022-08-21T20:34:32.342Z,3.90
2022-08-21T20:37:01.353Z,4.15
2022-08-21T20:39:28.299Z,3.80
2022-08-21T20:41:55.640Z,3.97
2022-08-21T20:44:27.307Z,3.85
2022-08-21T20:49:27.898Z,3.83
2022-08-21T20:51:57.181Z,3.60
2022-08-21T20:54:46.094Z,4.93
2022-08-21T20:57:14.026Z,4.20
2022-08-21T20:59:51.785Z,4.10
2022-08-21T21:02:49.710Z,3.83
2022-08-21T21:05:39.560Z,3.55
2022-08-21T21:08:20.307Z,4.90
2022-08-21T21:10:54.390Z,4.03
2022-08-21T21:13:28.337Z,3.70
2022-08-21T21:16:02.765Z,3.83
2022-08-21T21:18:41.564Z,3.80
2022-08-21T21:21:32.473Z,4.10
2022-08-21T21:24:19.085Z,4.15
2022-08-21T21:26:52.344Z,4.28
2022-08-21T21:29:24.929Z,4.35
2022-08-21T21:31:54.276Z,3.92
2022-08-21T21:34:26.657Z,3.75
2022-08-21T21:37:02.932Z,3.97
2022-08-21T21:42:31.199Z,3.83
2022-08-21T21:45:48.048Z,3.90
2022-08-21T21:48:28.455Z,3.67
2022-08-21T21:51:00.880Z,3.58
2022-08-21T21:53:45.863Z,4.00
2022-08-21T21:56:40.420Z,4.00
2022-08-21T21:59:37.168Z,3.60
2022-08-21T22:02:17.023Z,3.60
2022-08-21T22:05:06.124Z,3.80
2022-08-21T22:07:35.547Z,3.85
2022-08-21T22:10:20.054Z,3.55
2022-08-21T22:13:38.516Z,3.70
2022-08-21T22:16:25.070Z,3.55
2022-08-21T22:18:58.916Z,3.55
2022-08-21T22:21:37.272Z,3.60
2022-08-21T22:24:16.793Z,4.20
2022-08-21T22:26:51.029Z,3.95
2022-08-21T22:29:21.887Z,3.90
2022-08-21T22:32:06.930Z,4.20
2022-08-21T22:34:34.268Z,4.63
2022-08-21T22:37:10.109Z,4.90
2022-08-21T22:39:42.009Z,4.40
2022-08-21T22:42:15.791Z,4.38
2022-08-21T22:45:12.149Z,4.18
2022-08-21T22:47:46.038Z,4.60
2022-08-21T22:50:22.086Z,4.50
2022-08-21T22:52:54.884Z,4.78
2022-08-21T22:55:26.238Z,4.47
2022-08-21T22:58:21.079Z,4.57
2022-08-21T23:01:17.110Z,4.22
2022-08-21T23:03:48.105Z,4.28
2022-08-21T23:08:54.411Z,3.88
2022-08-21T23:11:45.791Z,4.22
2022-08-21T23:14:17.969Z,4.40
2022-08-21T23:17:00.118Z,4.50
2022-08-21T23:22:06.115Z,4.32
2022-08-21T23:24:46.739Z,4.55
2022-08-21T23:28:03.832Z,3.83
2022-08-21T23:30:55.161Z,4.78
2022-08-21T23:34:09.251Z,4.70
2022-08-21T23:37:12.519Z,4.10
2022-08-21T23:40:02.833Z,4.93
2022-08-21T23:42:57.532Z,4.88
2022-08-21T23:45:56.557Z,4.75
2022-08-21T23:49:05.914Z,4.60
2022-08-21T23:51:52.985Z,5.40
2022-08-21T23:54:27.021Z,5.80
2022-08-21T23:57:31.574Z,5.13
